createdAt,value
2023-08-14T00:00:16.468Z,24.10
2023-08-14T00:03:37.995Z,22.70
2023-08-14T00:06:39.739Z,22.80
2023-08-14T00:09:41.461Z,23.60
2023-08-14T00:12:43.116Z,21.40
2023-08-14T00:15:45.140Z,21.90
2023-08-14T00:18:47.173Z,23.30
2023-08-14T00:21:48.848Z,22.80
2023-08-14T00:24:50.553Z,21.60
2023-08-14T00:27:52.277Z,23.70
2023-08-14T00:30:54.074Z,22.60
2023-08-14T00:33:56.080Z,24.50
2023-08-14T00:36:58.193Z,23.50
2023-08-14T00:40:00.157Z,25.80
2023-08-14T00:43:07.962Z,23.20
2023-08-14T00:46:09.655Z,23.80
2023-08-14T00:49:11.519Z,23.10
2023-08-14T00:52:14.542Z,24.10
2023-08-14T00:55:20.646Z,25.10
2023-08-14T00:58:23.508Z,24.30
2023-08-14T01:01:25.474Z,22.20
2023-08-14T01:04:27.081Z,23.50
2023-08-14T01:07:29.062Z,26.10
2023-08-14T01:10:58.205Z,21.90
2023-08-14T01:14:10.760Z,22.80
2023-08-14T01:17:15.326Z,23.10
2023-08-14T01:20:19.257Z,22.00
2023-08-14T01:23:45.677Z,25.20
2023-08-14T01:26:47.564Z,26.50
2023-08-14T01:29:59.376Z,24.80
2023-08-14T01:33:01.208Z,24.40
2023-08-14T01:36:13.968Z,27.80
2023-08-14T01:39:17.716Z,30.60
2023-08-14T01:42:26.765Z,25.70
2023-08-14T01:45:29.351Z,25.80
2023-08-14T01:48:31.118Z,25.20
2023-08-14T01:51:33.365Z,27.50
2023-08-14T01:54:35.333Z,28.20
2023-08-14T01:57:36.989Z,25.20
2023-08-14T02:00:38.703Z,28.20
2023-08-14T02:03:40.609Z,27.50
2023-08-14T02:06:42.543Z,23.80
2023-08-14T02:09:44.453Z,26.20
2023-08-14T02:12:46.148Z,28.00
2023-08-14T02:15:47.831Z,27.20
2023-08-14T02:18:49.478Z,24.20
2023-08-14T02:21:51.120Z,26.30
2023-08-14T02:24:53.676Z,24.50
2023-08-14T02:27:55.269Z,23.90
2023-08-14T02:30:56.918Z,30.00
2023-08-14T02:34:00.589Z,25.60
2023-08-14T02:37:02.515Z,26.40
2023-08-14T02:40:04.636Z,24.40
2023-08-14T02:43:06.724Z,26.10
2023-08-14T02:46:08.543Z,25.10
2023-08-14T02:49:10.322Z,26.30
2023-08-14T02:52:12.086Z,25.20
2023-08-14T02:55:13.775Z,24.90
2023-08-14T02:58:15.447Z,25.70
2023-08-14T03:01:17.173Z,22.50
2023-08-14T03:04:18.783Z,25.80
2023-08-14T03:07:20.532Z,23.40
2023-08-14T03:10:22.234Z,24.20
2023-08-14T03:13:24.054Z,25.90
2023-08-14T03:16:25.723Z,24.90
2023-08-14T03:19:27.610Z,24.00
2023-08-14T03:22:29.518Z,23.00
2023-08-14T03:25:31.222Z,25.10
2023-08-14T03:28:33.112Z,22.60
2023-08-14T03:31:35.270Z,26.90
2023-08-14T03:34:36.917Z,26.50
2023-08-14T03:37:38.702Z,25.20
2023-08-14T03:40:40.350Z,24.10
2023-08-14T03:43:42.435Z,23.20
2023-08-14T03:46:44.082Z,23.00
2023-08-14T03:49:46.324Z,25.80
2023-08-14T03:52:49.265Z,26.10
2023-08-14T03:55:50.846Z,24.70
2023-08-14T03:58:52.438Z,26.40
2023-08-14T04:01:54.141Z,26.10
2023-08-14T04:04:56.084Z,23.50
2023-08-14T04:07:57.732Z,23.60
2023-08-14T04:10:59.341Z,25.30
2023-08-14T04:14:01.006Z,21.20
2023-08-14T04:17:02.717Z,25.00
2023-08-14T04:20:08.384Z,23.00
2023-08-14T04:23:10.288Z,24.20
2023-08-14T04:26:11.911Z,25.00
2023-08-14T04:29:13.539Z,24.90
2023-08-14T04:32:15.206Z,24.40
2023-08-14T04:35:16.879Z,22.50
2023-08-14T04:38:18.549Z,22.40
2023-08-14T04:41:20.076Z,22.50
2023-08-14T04:44:21.734Z,23.40
2023-08-14T04:47:23.416Z,21.20
2023-08-14T04:50:26.229Z,21.20
2023-08-14T04:53:27.813Z,20.50
2023-08-14T04:56:29.379Z,22.50
2023-08-14T04:59:31.108Z,22.70
2023-08-14T05:02:32.801Z,23.60
2023-08-14T05:05:34.577Z,21.20
2023-08-14T05:08:36.311Z,21.10
2023-08-14T05:11:37.886Z,22.10
2023-08-14T05:14:39.503Z,21.90
2023-08-14T05:17:41.144Z,25.60
2023-08-14T05:20:44.119Z,25.30
2023-08-14T05:23:45.690Z,24.70
2023-08-14T05:26:47.316Z,22.10
2023-08-14T05:29:48.896Z,20.40
2023-08-14T05:32:50.567Z,23.70
2023-08-14T05:35:52.208Z,23.90
2023-08-14T05:38:53.839Z,19.70
2023-08-14T05:41:55.564Z,23.30
2023-08-14T05:44:57.150Z,18.90
2023-08-14T05:47:59.614Z,21.70
2023-08-14T05:51:01.334Z,20.40
2023-08-14T05:54:02.922Z,18.90
2023-08-14T05:57:05.484Z,18.60
2023-08-14T06:00:08.066Z,18.10
2023-08-14T06:03:09.906Z,17.70
2023-08-14T06:06:11.808Z,16.60
2023-08-14T06:09:13.546Z,20.00
2023-08-14T06:12:15.205Z,22.60
2023-08-14T06:15:18.209Z,15.80
2023-08-14T06:18:19.797Z,17.00
2023-08-14T06:21:21.435Z,12.80
2023-08-14T06:24:23.189Z,17.40
2023-08-14T06:27:24.879Z,15.10
2023-08-14T06:30:26.568Z,12.20
2023-08-14T06:33:28.245Z,12.60
2023-08-14T06:36:29.894Z,16.90
2023-08-14T06:39:32.026Z,14.30
2023-08-14T06:42:34.213Z,15.00
2023-08-14T06:45:35.932Z,16.60
2023-08-14T06:48:37.530Z,12.60
2023-08-14T06:51:39.901Z,14.00
2023-08-14T06:54:41.725Z,11.70
2023-08-14T06:57:43.458Z,19.60
2023-08-14T07:00:48.110Z,13.70
2023-08-14T07:03:49.838Z,17.00
2023-08-14T07:06:51.572Z,17.60
2023-08-14T07:09:53.181Z,13.40
2023-08-14T07:12:54.796Z,13.80
2023-08-14T07:15:56.448Z,16.80
2023-08-14T07:18:58.414Z,14.00
2023-08-14T07:22:00.046Z,15.10
2023-08-14T07:25:01.850Z,14.70
2023-08-14T07:28:03.762Z,13.90
2023-08-14T07:31:05.493Z,10.90
2023-08-14T07:34:07.127Z,10.80
2023-08-14T07:37:08.707Z,12.20
2023-08-14T07:40:11.126Z,14.00
2023-08-14T07:43:12.673Z,12.80
2023-08-14T07:46:14.324Z,13.40
2023-08-14T07:49:16.107Z,12.80
2023-08-14T07:52:18.012Z,11.50
2023-08-14T07:55:19.994Z,11.10
2023-08-14T07:58:21.617Z,12.00
2023-08-14T08:01:23.526Z,11.60
2023-08-14T08:04:27.135Z,8.70
2023-08-14T08:07:29.402Z,12.00
2023-08-14T08:10:31.138Z,13.20
2023-08-14T08:13:32.820Z,12.10
2023-08-14T08:16:35.307Z,12.30
2023-08-14T08:19:37.030Z,10.20
2023-08-14T08:22:38.767Z,10.10
2023-08-14T08:25:40.488Z,8.70
2023-08-14T08:28:42.123Z,10.20
2023-08-14T08:31:43.836Z,8.30
2023-08-14T08:34:45.608Z,11.30
2023-08-14T08:37:47.179Z,11.50
2023-08-14T08:40:50.840Z,11.90
2023-08-14T08:44:07.450Z,12.50
2023-08-14T08:47:11.474Z,13.90
2023-08-14T08:50:14.463Z,10.60
2023-08-14T08:53:19.387Z,10.40
2023-08-14T08:56:21.533Z,12.70
2023-08-14T08:59:23.980Z,7.60
2023-08-14T09:02:25.835Z,8.50
2023-08-14T09:05:27.623Z,8.80
2023-08-14T09:08:29.472Z,7.50
2023-08-14T09:11:31.767Z,7.90
2023-08-14T09:14:33.579Z,6.00
2023-08-14T09:17:35.321Z,7.20
2023-08-14T09:20:40.399Z,9.80
2023-08-14T09:23:43.179Z,15.10
2023-08-14T09:26:45.611Z,7.40
2023-08-14T09:29:47.457Z,8.10
2023-08-14T09:32:49.209Z,7.30
2023-08-14T09:35:54.008Z,12.00
2023-08-14T09:38:56.190Z,10.80
2023-08-14T09:41:58.021Z,5.40
2023-08-14T09:44:59.838Z,9.80
2023-08-14T09:48:01.940Z,9.10
2023-08-14T09:51:03.802Z,12.80
2023-08-14T09:54:09.119Z,9.90
2023-08-14T09:57:10.889Z,5.10
2023-08-14T10:00:13.229Z,9.00
2023-08-14T10:03:15.405Z,8.20
2023-08-14T10:06:17.763Z,8.60
2023-08-14T10:09:22.897Z,9.70
2023-08-14T10:12:32.574Z,10.50
2023-08-14T10:15:38.339Z,6.90
2023-08-14T10:18:40.970Z,5.50
2023-08-14T10:21:44.476Z,6.70
2023-08-14T10:24:46.858Z,8.80
2023-08-14T10:27:50.559Z,12.10
2023-08-14T10:30:52.507Z,7.80
2023-08-14T10:33:55.574Z,7.50
2023-08-14T10:36:57.471Z,9.70
2023-08-14T10:40:14.539Z,7.50
2023-08-14T10:43:16.334Z,7.00
2023-08-14T10:46:18.763Z,7.30
2023-08-14T10:49:20.527Z,10.60
2023-08-14T10:52:23.360Z,9.00
2023-08-14T10:55:45.211Z,7.40
2023-08-14T10:58:51.412Z,11.20
2023-08-14T11:02:04.868Z,9.50
2023-08-14T11:05:14.433Z,7.40
2023-08-14T11:08:16.884Z,6.70
2023-08-14T11:11:18.477Z,8.00
2023-08-14T11:14:20.266Z,11.50
2023-08-14T11:17:22.400Z,8.90
2023-08-14T11:20:29.872Z,9.50
2023-08-14T11:23:34.219Z,11.50
2023-08-14T11:26:35.808Z,10.00
2023-08-14T11:29:51.736Z,10.40
2023-08-14T11:32:55.286Z,8.60
2023-08-14T11:36:04.034Z,8.20
2023-08-14T11:39:13.213Z,11.80
2023-08-14T11:42:14.854Z,9.50
2023-08-14T11:45:16.622Z,8.00
2023-08-14T11:48:19.744Z,10.50
2023-08-14T11:51:21.758Z,10.10
2023-08-14T11:54:24.633Z,14.40
2023-08-14T11:57:30.433Z,7.30
2023-08-14T12:00:34.174Z,9.10
2023-08-14T12:03:36.918Z,6.60
2023-08-14T12:06:38.624Z,11.00
2023-08-14T12:09:40.342Z,5.40
2023-08-14T12:12:51.483Z,11.60
2023-08-14T12:15:57.001Z,10.90
2023-08-14T12:18:58.900Z,10.60
2023-08-14T12:22:03.718Z,8.50
2023-08-14T12:25:08.802Z,7.30
2023-08-14T12:28:10.417Z,7.00
2023-08-14T12:31:12.523Z,8.60
2023-08-14T12:34:14.213Z,10.00
2023-08-14T12:37:17.584Z,12.30
2023-08-14T12:40:19.610Z,10.10
2023-08-14T12:43:27.717Z,9.80
2023-08-14T12:46:32.590Z,8.20
2023-08-14T12:49:37.954Z,8.70
2023-08-14T12:52:39.860Z,13.30
2023-08-14T12:55:41.764Z,10.80
2023-08-14T12:58:48.220Z,11.20
2023-08-14T13:04:54.905Z,11.40
2023-08-14T13:07:59.464Z,10.30
2023-08-14T13:11:01.326Z,12.80
2023-08-14T13:14:03.179Z,9.30
2023-08-14T13:17:04.933Z,10.80
2023-08-14T13:20:07.500Z,11.60
2023-08-14T13:23:09.271Z,10.70
2023-08-14T13:26:25.522Z,12.60
2023-08-14T13:29:29.196Z,18.80
2023-08-14T13:32:30.841Z,15.00
2023-08-14T13:35:32.506Z,10.40
2023-08-14T13:38:34.074Z,8.10
2023-08-14T13:41:35.704Z,9.70
2023-08-14T13:44:37.521Z,33.00
2023-08-14T13:47:43.979Z,10.50
2023-08-14T13:50:55.456Z,13.20
2023-08-14T13:53:57.048Z,8.60
2023-08-14T13:56:58.640Z,10.40
2023-08-14T14:00:00.468Z,10.50
2023-08-14T14:03:05.617Z,8.70
2023-08-14T14:06:07.645Z,14.50
2023-08-14T14:09:09.379Z,8.70
2023-08-14T14:12:11.236Z,11.70
2023-08-14T14:15:12.923Z,12.40
2023-08-14T14:18:14.601Z,10.20
2023-08-14T14:21:16.259Z,8.20
2023-08-14T14:24:17.930Z,10.60
2023-08-14T14:27:19.816Z,10.20
2023-08-14T14:30:22.217Z,11.60
2023-08-14T14:33:23.822Z,9.00
2023-08-14T14:36:25.480Z,9.80
2023-08-14T14:39:27.190Z,10.00
2023-08-14T14:42:28.835Z,8.40
2023-08-14T14:45:34.822Z,10.50
2023-08-14T14:48:37.087Z,10.70
2023-08-14T14:51:38.678Z,9.80
2023-08-14T14:54:40.557Z,10.20
2023-08-14T14:57:42.189Z,12.00
2023-08-14T15:00:43.761Z,9.30
2023-08-14T15:03:45.549Z,9.10
2023-08-14T15:06:47.874Z,10.70
2023-08-14T15:09:49.537Z,8.00
2023-08-14T15:12:51.262Z,10.20
2023-08-14T15:15:53.026Z,10.40
2023-08-14T15:18:54.756Z,8.70
2023-08-14T15:21:56.380Z,8.90
2023-08-14T15:24:58.082Z,10.20
2023-08-14T15:28:00.115Z,14.10
2023-08-14T15:31:01.811Z,13.80
2023-08-14T15:34:03.525Z,11.40
2023-08-14T15:37:05.257Z,9.30
2023-08-14T15:40:07.693Z,12.20
2023-08-14T15:43:09.278Z,11.70
2023-08-14T15:46:10.951Z,13.40
2023-08-14T15:49:12.541Z,13.50
2023-08-14T15:52:18.326Z,11.70
2023-08-14T15:55:19.968Z,9.90
2023-08-14T15:58:21.725Z,11.60
2023-08-14T16:01:23.344Z,11.30
2023-08-14T16:04:25.130Z,11.00
2023-08-14T16:07:26.813Z,11.30
2023-08-14T16:10:28.414Z,16.80
2023-08-14T16:13:29.999Z,17.90
2023-08-14T16:16:31.853Z,14.80
2023-08-14T16:19:33.872Z,14.50
2023-08-14T16:22:35.609Z,13.10
2023-08-14T16:25:37.274Z,13.20
2023-08-14T16:28:38.876Z,12.10
2023-08-14T16:31:40.482Z,12.80
2023-08-14T16:34:42.105Z,13.10
2023-08-14T16:37:43.710Z,14.60
2023-08-14T16:40:46.133Z,11.30
2023-08-14T16:43:47.816Z,13.80
2023-08-14T16:46:49.460Z,15.90
2023-08-14T16:49:51.115Z,28.90
2023-08-14T16:52:52.742Z,34.40
2023-08-14T16:55:54.402Z,26.80
2023-08-14T16:58:55.993Z,24.00
2023-08-14T17:01:57.931Z,21.90
2023-08-14T17:04:59.635Z,22.00
2023-08-14T17:08:01.232Z,23.00
2023-08-14T17:11:05.663Z,23.60
2023-08-14T17:14:07.353Z,24.90
2023-08-14T17:17:08.992Z,28.20
2023-08-14T17:20:10.999Z,27.40
2023-08-14T17:23:12.604Z,25.00
2023-08-14T17:26:14.210Z,32.00
2023-08-14T17:29:15.863Z,28.20
2023-08-14T17:32:18.721Z,26.00
2023-08-14T17:35:20.315Z,28.80
2023-08-14T17:38:22.139Z,28.20
2023-08-14T17:41:23.690Z,27.70
2023-08-14T17:44:25.327Z,70.40
2023-08-14T17:47:27.019Z,52.10
2023-08-14T17:50:29.172Z,31.50
2023-08-14T17:53:30.776Z,29.50
2023-08-14T17:56:32.444Z,27.20
2023-08-14T17:59:34.215Z,23.80
2023-08-14T18:02:35.882Z,27.30
2023-08-14T18:05:37.595Z,27.60
2023-08-14T18:08:39.304Z,34.00
2023-08-14T18:11:41.509Z,32.10
2023-08-14T18:14:43.120Z,30.30
2023-08-14T18:17:44.762Z,28.10
2023-08-14T18:20:51.356Z,23.10
2023-08-14T18:23:53.045Z,25.10
2023-08-14T18:26:54.743Z,28.80
2023-08-14T18:29:56.429Z,29.80
2023-08-14T18:32:58.219Z,25.20
2023-08-14T18:36:00.004Z,30.50
2023-08-14T18:39:01.814Z,27.10
2023-08-14T18:42:03.944Z,26.10
2023-08-14T18:45:06.505Z,24.90
2023-08-14T18:48:08.795Z,28.20
2023-08-14T18:51:10.522Z,33.40
2023-08-14T18:54:12.582Z,31.30
2023-08-14T18:57:14.168Z,34.00
2023-08-14T19:00:15.995Z,31.20
2023-08-14T19:03:18.228Z,30.20
2023-08-14T19:06:19.812Z,30.20
2023-08-14T19:09:21.418Z,29.60
2023-08-14T19:12:23.184Z,30.70
2023-08-14T19:15:24.951Z,32.30
2023-08-14T19:18:27.467Z,25.50
2023-08-14T19:21:29.197Z,26.80
2023-08-14T19:24:30.879Z,27.40
2023-08-14T19:27:32.583Z,28.80
2023-08-14T19:30:37.517Z,23.50
2023-08-14T19:33:39.203Z,28.20
2023-08-14T19:36:40.784Z,25.90
2023-08-14T19:39:42.415Z,26.90
2023-08-14T19:42:43.983Z,32.70
2023-08-14T19:45:45.592Z,32.90
2023-08-14T19:48:47.120Z,29.20
2023-08-14T19:51:48.767Z,26.80
2023-08-14T19:54:50.430Z,26.60
2023-08-14T19:57:52.083Z,22.90
2023-08-14T20:01:01.064Z,23.20
2023-08-14T20:04:02.838Z,25.40
2023-08-14T20:07:04.586Z,25.50
2023-08-14T20:10:06.853Z,23.90
2023-08-14T20:13:09.182Z,23.60
2023-08-14T20:16:10.864Z,24.30
2023-08-14T20:19:12.745Z,22.00
2023-08-14T20:22:14.418Z,24.00
2023-08-14T20:25:16.276Z,22.60
2023-08-14T20:28:18.079Z,25.80
2023-08-14T20:31:22.465Z,25.80
2023-08-14T20:34:24.228Z,29.50
2023-08-14T20:37:26.007Z,24.40
2023-08-14T20:40:29.793Z,26.10
2023-08-14T20:43:32.844Z,26.70
2023-08-14T20:46:34.616Z,23.50
2023-08-14T20:49:36.474Z,22.70
2023-08-14T20:52:38.112Z,24.10
2023-08-14T20:55:42.850Z,25.60
2023-08-14T20:58:44.432Z,26.80
2023-08-14T21:01:46.069Z,25.40
2023-08-14T21:04:47.707Z,23.90
2023-08-14T21:07:49.322Z,24.10
2023-08-14T21:10:51.007Z,29.60
2023-08-14T21:13:52.888Z,25.50
2023-08-14T21:16:54.570Z,27.40
2023-08-14T21:19:56.383Z,30.60
2023-08-14T21:22:57.968Z,28.10
2023-08-14T21:25:59.683Z,27.80
2023-08-14T21:29:01.219Z,25.80
2023-08-14T21:32:02.974Z,30.80
2023-08-14T21:35:05.550Z,25.40
2023-08-14T21:38:07.673Z,26.10
2023-08-14T21:41:09.414Z,29.10
2023-08-14T21:44:11.223Z,26.90
2023-08-14T21:47:12.861Z,26.40
2023-08-14T21:50:14.608Z,25.00
2023-08-14T21:53:16.478Z,25.20
2023-08-14T21:56:18.164Z,23.80
2023-08-14T21:59:19.806Z,23.60
2023-08-14T22:02:21.457Z,23.90
2023-08-14T22:05:23.186Z,25.90
2023-08-14T22:08:24.887Z,28.30
2023-08-14T22:11:26.531Z,27.90
2023-08-14T22:14:28.250Z,28.60
2023-08-14T22:17:29.901Z,35.10
2023-08-14T22:20:31.620Z,34.00
2023-08-14T22:23:34.028Z,29.90
2023-08-14T22:26:35.705Z,32.80
2023-08-14T22:29:37.364Z,34.90
2023-08-14T22:32:39.598Z,31.60
2023-08-14T22:35:41.294Z,33.80
2023-08-14T22:38:42.900Z,33.40
2023-08-14T22:41:44.602Z,36.10
2023-08-14T22:44:46.440Z,34.40
2023-08-14T22:47:49.175Z,30.40
2023-08-14T22:50:51.864Z,31.80
2023-08-14T22:53:54.661Z,32.80
2023-08-14T22:56:56.214Z,30.20
2023-08-14T22:59:57.811Z,34.80
2023-08-14T23:02:59.560Z,32.20
2023-08-14T23:06:01.477Z,31.40
2023-08-14T23:09:03.533Z,33.10
2023-08-14T23:12:05.492Z,33.30
2023-08-14T23:15:07.612Z,32.50
2023-08-14T23:18:09.426Z,31.40
2023-08-14T23:21:11.151Z,30.10
2023-08-14T23:24:12.855Z,28.60
2023-08-14T23:27:14.475Z,27.80
2023-08-14T23:30:23.804Z,32.00
2023-08-14T23:33:25.758Z,25.20
2023-08-14T23:36:27.486Z,27.00
2023-08-14T23:39:29.144Z,26.00
2023-08-14T23:42:30.924Z,25.70
2023-08-14T23:45:32.667Z,26.50
2023-08-14T23:48:34.333Z,25.20
2023-08-14T23:51:36.008Z,26.10
2023-08-14T23:54:38.396Z,24.90
2023-08-14T23:57:40.107Z,24.40
